Time;durP1;ratioP1;P1;durP2;ratioP2;P2;SDS_P1;SDS_P2;PMS_P1;PMS_P2;Temp;Humidity;BMP_temperature;BMP_pressure;BME280_temperature;BME280_humidity;BME280_pressure;Samples;Min_cycle;Max_cycle;Signal;HPM_P1;HPM_P2
2023/01/11 00:00:25;;;;;;;9.02;2.55;;;4.30;99.90;;;;;;5027481;28;20084;-67
2023/01/11 00:02:59;;;;;;;8.57;2.03;;;4.30;99.90;;;;;;5028878;28;20061;-67
2023/01/11 00:05:25;;;;;;;8.05;1.80;;;4.30;99.90;;;;;;5027862;28;20118;-66
2023/01/11 00:07:50;;;;;;;12.00;2.20;;;4.30;99.90;;;;;;5027655;28;20057;-66
2023/01/11 00:10:17;;;;;;;8.73;2.30;;;5.50;99.90;;;;;;5027884;28;20025;-66
2023/01/11 00:12:42;;;;;;;15.07;2.47;;;4.20;99.90;;;;;;5027616;28;20104;-66
2023/01/11 00:15:09;;;;;;;10.27;1.92;;;4.20;99.90;;;;;;5032829;28;20127;-63
2023/01/11 00:17:34;;;;;;;13.30;2.88;;;4.30;99.90;;;;;;5037451;28;20108;-65
2023/01/11 00:20:00;;;;;;;9.23;1.95;;;4.30;99.90;;;;;;5029526;28;20179;-66
2023/01/11 00:22:26;;;;;;;15.15;1.88;;;4.30;99.90;;;;;;5024062;28;20017;-68
2023/01/11 00:24:52;;;;;;;9.70;2.40;;;4.30;99.90;;;;;;5020092;28;20436;-66
2023/01/11 00:27:17;;;;;;;16.98;2.05;;;4.30;99.90;;;;;;5041821;28;20029;-66
2023/01/11 00:29:43;;;;;;;16.60;2.30;;;4.40;99.90;;;;;;5034433;28;20030;-66
2023/01/11 00:32:09;;;;;;;10.70;1.75;;;4.30;99.90;;;;;;5033804;28;20049;-67
2023/01/11 00:34:34;;;;;;;12.57;1.85;;;4.30;99.90;;;;;;5022877;28;20121;-68
2023/01/11 00:37:00;;;;;;;13.55;2.58;;;4.30;99.90;;;;;;5029361;28;20636;-68
2023/01/11 00:39:26;;;;;;;8.18;1.67;;;4.20;99.90;;;;;;5034108;28;20030;-64
2023/01/11 00:50:04;;;;;;;21.48;2.65;;;4.20;99.90;;;;;;5033578;28;20040;-65
2023/01/11 00:52:30;;;;;;;6.95;2.85;;;4.20;99.90;;;;;;5034141;28;20029;-66
2023/01/11 00:54:55;;;;;;;7.75;1.60;;;4.20;99.90;;;;;;5034177;28;20025;-64
2023/01/11 00:57:21;;;;;;;13.00;1.92;;;4.20;99.90;;;;;;5033947;28;20399;-66
2023/01/11 00:59:46;;;;;;;11.32;1.73;;;4.20;99.90;;;;;;5034093;28;20087;-66
2023/01/11 01:02:12;;;;;;;9.05;1.77;;;4.30;99.90;;;;;;5033482;28;20103;-66
2023/01/11 01:04:39;;;;;;;15.52;2.17;;;4.20;99.90;;;;;;5033535;28;20035;-66
2023/01/11 01:07:05;;;;;;;8.98;1.83;;;4.20;99.90;;;;;;5033335;28;20439;-67
2023/01/11 01:09:31;;;;;;;13.30;1.90;;;4.20;99.90;;;;;;5033964;28;20033;-66
2023/01/11 01:11:57;;;;;;;7.45;1.45;;;4.40;99.90;;;;;;5033581;28;20079;-65
2023/01/11 01:14:29;;;;;;;10.13;1.63;;;4.10;99.90;;;;;;5033292;28;20068;-66
2023/01/11 01:17:00;;;;;;;7.43;1.77;;;4.10;99.90;;;;;;5033880;28;20470;-66
2023/01/11 01:19:27;;;;;;;11.48;2.00;;;4.00;99.90;;;;;;5033355;28;20033;-66
2023/01/11 01:21:55;;;;;;;16.02;2.85;;;4.00;99.90;;;;;;5033726;28;20053;-66
2023/01/11 01:24:21;;;;;;;16.42;3.85;;;3.90;99.90;;;;;;5033192;28;20091;-66
2023/01/11 01:26:46;;;;;;;6.65;1.65;;;3.90;99.90;;;;;;5033928;28;20445;-67
2023/01/11 01:29:13;;;;;;;8.32;1.60;;;3.90;99.90;;;;;;5033300;28;20109;-65
2023/01/11 01:31:39;;;;;;;12.85;1.92;;;3.90;99.90;;;;;;5033201;28;20070;-66
2023/01/11 01:34:05;;;;;;;11.55;1.95;;;3.80;99.90;;;;;;5032698;28;20064;-66
2023/01/11 01:36:31;;;;;;;7.88;2.88;;;3.80;99.90;;;;;;5033378;28;20439;-67
2023/01/11 01:39:00;;;;;;;10.55;1.95;;;3.70;99.90;;;;;;5032721;28;20510;-65
2023/01/11 01:41:26;;;;;;;4.63;1.60;;;3.70;99.90;;;;;;5032689;28;20033;-66
2023/01/11 01:43:57;;;;;;;12.43;2.10;;;3.70;99.90;;;;;;5032997;28;20400;-65
2023/01/11 01:46:27;;;;;;;9.43;1.33;;;3.70;99.90;;;;;;5033287;28;20021;-67
2023/01/11 01:48:59;;;;;;;18.85;4.32;;;3.80;99.90;;;;;;5033151;28;20484;-68
2023/01/11 01:51:30;;;;;;;19.13;2.22;;;3.80;99.90;;;;;;5033027;28;20022;-67
2023/01/11 01:54:01;;;;;;;11.93;1.30;;;3.90;99.90;;;;;;5032457;28;20047;-66
2023/01/11 01:56:41;;;;;;;12.13;2.45;;;4.00;99.90;;;;;;5032471;28;20083;-66
2023/01/11 01:59:12;;;;;;;8.38;1.80;;;4.00;99.90;;;;;;5032937;28;20035;-66
2023/01/11 02:01:48;;;;;;;12.07;2.25;;;4.10;99.90;;;;;;5051288;22;20050;-62
2023/01/11 02:04:27;;;;;;;10.65;1.80;;;4.10;99.90;;;;;;5031957;28;20026;-62
2023/01/11 02:06:57;;;;;;;7.88;1.63;;;4.10;99.90;;;;;;5031445;28;20025;-63
2023/01/11 02:09:52;;;;;;;8.45;1.35;;;4.20;99.90;;;;;;5032526;28;20028;-63
2023/01/11 02:12:19;;;;;;;8.77;1.63;;;4.30;99.90;;;;;;5015361;28;20049;-61
2023/01/11 02:14:46;;;;;;;11.70;1.90;;;4.30;99.90;;;;;;5032646;28;20025;-64
2023/01/11 02:17:12;;;;;;;9.15;3.05;;;4.30;99.90;;;;;;5031863;28;20503;-63
2023/01/11 02:20:15;;;;;;;9.07;1.67;;;4.30;99.90;;;;;;5032461;28;20455;-60
2023/01/11 02:22:59;;;;;;;9.00;1.48;;;4.40;99.90;;;;;;5032206;28;20391;-63
2023/01/11 02:25:48;;;;;;;10.15;2.00;;;4.40;99.90;;;;;;5032855;28;20028;-63
2023/01/11 02:28:37;;;;;;;7.20;1.30;;;4.50;99.90;;;;;;5032688;28;20033;-62
2023/01/11 02:31:27;;;;;;;6.20;1.42;;;4.60;99.90;;;;;;5033361;28;20078;-62
2023/01/11 02:34:03;;;;;;;3.92;1.20;;;4.70;99.90;;;;;;5032844;28;20044;-62
2023/01/11 02:37:06;;;;;;;11.60;1.70;;;4.70;99.90;;;;;;5032544;28;20030;-62
2023/01/11 02:40:08;;;;;;;9.80;1.30;;;4.80;99.90;;;;;;5032429;28;20037;-62
2023/01/11 02:45:25;;;;;;;8.80;1.23;;;4.80;99.90;;;;;;5031300;28;20051;-63
2023/01/11 02:48:10;;;;;;;14.02;1.67;;;4.70;99.90;;;;;;5032971;28;20025;-62
2023/01/11 02:50:50;;;;;;;6.30;1.15;;;5.10;99.90;;;;;;5032608;28;20502;-63
2023/01/11 02:53:32;;;;;;;10.15;1.48;;;4.80;99.90;;;;;;5028007;28;20058;-64
2023/01/11 02:56:03;;;;;;;5.43;1.30;;;4.80;99.90;;;;;;5024092;28;20030;-60
2023/01/11 02:58:34;;;;;;;6.30;1.65;;;4.80;99.90;;;;;;5032770;28;20396;-63
2023/01/11 03:00:59;;;;;;;5.85;1.10;;;4.70;99.90;;;;;;5031348;28;20109;-58
2023/01/11 03:03:28;;;;;;;8.93;1.40;;;4.70;99.90;;;;;;5031240;28;20108;-61
2023/01/11 03:06:02;;;;;;;13.88;1.27;;;4.80;99.90;;;;;;5031809;28;20021;-61
2023/01/11 03:09:01;;;;;;;11.15;1.08;;;4.90;99.90;;;;;;5031603;28;20104;-64
2023/01/11 03:15:00;;;;;;;4.50;1.20;;;5.00;99.90;;;;;;5031656;28;20040;-62
2023/01/11 03:17:52;;;;;;;6.57;1.10;;;6.10;99.90;;;;;;5031195;28;20076;-59
2023/01/11 03:20:31;;;;;;;9.10;1.08;;;5.00;99.90;;;;;;5031423;28;20022;-64
2023/01/11 03:23:11;;;;;;;5.68;0.95;;;5.40;99.90;;;;;;5031043;28;20029;-62
2023/01/11 03:25:58;;;;;;;5.40;0.90;;;5.10;99.90;;;;;;5031400;28;20541;-64
2023/01/11 03:28:35;;;;;;;4.60;1.10;;;5.00;99.90;;;;;;5031305;28;20041;-60
2023/01/11 03:31:06;;;;;;;4.95;1.42;;;5.00;99.90;;;;;;5031300;28;20480;-63
2023/01/11 03:33:38;;;;;;;5.40;1.23;;;5.00;99.90;;;;;;5030764;28;20205;-63
2023/01/11 03:36:15;;;;;;;2.55;0.90;;;5.00;99.90;;;;;;5031079;28;20068;-65
2023/01/11 03:39:07;;;;;;;5.35;1.25;;;5.00;99.90;;;;;;5031189;28;20484;-62
2023/01/11 03:41:37;;;;;;;3.60;1.27;;;5.00;99.90;;;;;;5003900;28;20048;-62
2023/01/11 03:44:07;;;;;;;4.78;0.90;;;5.00;99.90;;;;;;5031009;28;20017;-63
2023/01/11 03:46:40;;;;;;;4.30;1.10;;;5.10;99.90;;;;;;5031111;28;20035;-64
2023/01/11 03:49:12;;;;;;;6.22;1.30;;;5.10;99.90;;;;;;5031130;28;20099;-62
2023/01/11 03:51:42;;;;;;;4.80;1.23;;;5.10;99.90;;;;;;5029403;28;20117;-62
2023/01/11 03:54:10;;;;;;;6.05;1.13;;;5.20;99.90;;;;;;5030616;28;20517;-63
2023/01/11 03:57:00;;;;;;;5.13;1.20;;;5.40;99.90;;;;;;5032858;28;20021;-62
2023/01/11 03:59:26;;;;;;;9.55;1.08;;;5.40;99.90;;;;;;5034414;28;20399;-64
2023/01/11 04:01:56;;;;;;;5.43;1.10;;;5.20;99.90;;;;;;5034851;28;20087;-64
2023/01/11 04:04:22;;;;;;;5.85;1.20;;;5.20;99.90;;;;;;5034884;28;20022;-63
2023/01/11 04:06:47;;;;;;;4.90;0.85;;;5.20;99.90;;;;;;5034822;28;20022;-63
2023/01/11 04:09:13;;;;;;;4.15;1.08;;;5.20;99.90;;;;;;5035082;28;20105;-63
2023/01/11 04:11:39;;;;;;;10.02;2.35;;;5.30;99.90;;;;;;5034915;28;20417;-61
2023/01/11 04:14:04;;;;;;;12.00;0.90;;;5.30;99.90;;;;;;5034747;28;20034;-62
2023/01/11 04:16:30;;;;;;;3.95;0.70;;;5.30;99.90;;;;;;5035077;28;20026;-62
2023/01/11 04:18:56;;;;;;;6.93;1.60;;;5.30;99.90;;;;;;5034739;28;20080;-63
2023/01/11 04:21:21;;;;;;;4.72;0.98;;;5.30;99.90;;;;;;5034495;28;20460;-56
2023/01/11 04:23:47;;;;;;;6.20;1.52;;;5.30;99.90;;;;;;5033841;28;20033;-63
2023/01/11 04:26:13;;;;;;;5.68;0.93;;;5.30;99.90;;;;;;5034288;28;20059;-64
2023/01/11 04:28:39;;;;;;;17.40;1.17;;;5.30;99.90;;;;;;5034617;28;20100;-63
2023/01/11 04:31:04;;;;;;;4.13;1.10;;;5.30;99.90;;;;;;5034551;28;20025;-63
2023/01/11 04:33:30;;;;;;;5.60;1.05;;;5.30;99.90;;;;;;5034194;28;20033;-64
2023/01/11 04:35:56;;;;;;;4.57;1.15;;;5.30;99.90;;;;;;5034347;28;20022;-56
2023/01/11 04:38:23;;;;;;;6.07;1.20;;;5.30;99.90;;;;;;5034449;28;20026;-62
2023/01/11 04:42:17;;;;;;;7.32;1.13;;;5.30;99.90;;;;;;5033816;28;20063;-58
2023/01/11 04:43:35;;;;;;;5.68;1.20;;;5.40;99.90;;;;;;5033755;28;20033;-62
2023/01/11 04:46:00;;;;;;;11.18;1.05;;;5.30;99.90;;;;;;5034213;28;20571;-63
2023/01/11 04:48:26;;;;;;;7.53;1.10;;;5.30;99.90;;;;;;5015881;28;20032;-59
2023/01/11 04:50:51;;;;;;;12.55;1.38;;;5.30;99.90;;;;;;5017720;28;20029;-63
2023/01/11 04:53:17;;;;;;;7.00;1.02;;;5.30;99.90;;;;;;5024650;28;20032;-63
2023/01/11 04:55:43;;;;;;;4.22;1.58;;;5.30;99.90;;;;;;5014412;28;20695;-64
2023/01/11 04:58:08;;;;;;;3.28;1.02;;;5.30;99.90;;;;;;5025312;28;20554;-62
2023/01/11 05:00:34;;;;;;;10.32;1.50;;;5.30;99.90;;;;;;5013955;28;20033;-60
2023/01/11 05:03:00;;;;;;;4.80;1.00;;;5.30;99.90;;;;;;5019987;28;20053;-61
2023/01/11 05:05:25;;;;;;;4.22;0.88;;;5.40;99.90;;;;;;5020508;28;20109;-61
2023/01/11 05:07:51;;;;;;;5.93;0.98;;;5.40;99.90;;;;;;5012469;28;20030;-62
2023/01/11 05:10:16;;;;;;;6.82;1.17;;;6.50;99.90;;;;;;5024797;28;20059;-62
2023/01/11 05:12:42;;;;;;;12.75;1.73;;;5.40;99.90;;;;;;5009517;28;20413;-56
2023/01/11 05:15:08;;;;;;;2.72;0.90;;;5.30;99.90;;;;;;5009449;28;20084;-56
2023/01/11 05:17:34;;;;;;;3.30;0.98;;;5.40;99.90;;;;;;5009222;28;20121;-60
2023/01/11 05:19:59;;;;;;;4.38;1.23;;;5.30;99.90;;;;;;5021693;28;20340;-63
2023/01/11 05:22:25;;;;;;;4.57;1.08;;;5.30;99.90;;;;;;5010421;28;20037;-63
2023/01/11 05:24:51;;;;;;;6.63;1.40;;;5.30;99.90;;;;;;5023897;28;20029;-62
2023/01/11 05:27:16;;;;;;;7.03;1.42;;;5.30;99.90;;;;;;5012172;28;20038;-63
2023/01/11 05:29:43;;;;;;;8.93;1.88;;;5.30;99.90;;;;;;5020203;28;20789;-61
2023/01/11 05:32:08;;;;;;;9.15;1.17;;;5.30;99.90;;;;;;5012427;28;20429;-61
2023/01/11 05:34:34;;;;;;;3.75;0.90;;;5.30;99.90;;;;;;5024796;28;20034;-61
2023/01/11 05:37:00;;;;;;;3.80;1.25;;;5.40;99.90;;;;;;5013449;28;20044;-62
2023/01/11 05:39:25;;;;;;;2.40;0.88;;;5.40;99.90;;;;;;5018451;28;20088;-63
2023/01/11 05:41:51;;;;;;;3.95;1.10;;;5.40;99.90;;;;;;5020714;28;20025;-64
2023/01/11 05:47:01;;;;;;;5.37;1.30;;;5.40;99.90;;;;;;5013966;28;20040;-63
2023/01/11 05:49:27;;;;;;;8.25;1.15;;;5.40;99.90;;;;;;5017755;28;20026;-64
2023/01/11 05:51:52;;;;;;;4.00;1.13;;;5.40;99.90;;;;;;5020621;28;20487;-60
2023/01/11 05:54:18;;;;;;;12.10;1.20;;;5.50;99.90;;;;;;5010313;28;20026;-61
2023/01/11 05:56:44;;;;;;;4.90;1.17;;;5.50;99.90;;;;;;5023515;28;20053;-62
2023/01/11 05:59:10;;;;;;;6.25;1.33;;;5.50;99.90;;;;;;5014714;28;20025;-62
2023/01/11 06:01:36;;;;;;;6.40;1.10;;;5.50;99.90;;;;;;5019963;28;20044;-63
2023/01/11 06:04:01;;;;;;;6.38;1.13;;;5.50;99.90;;;;;;5013059;28;20110;-57
2023/01/11 06:06:27;;;;;;;5.30;1.00;;;5.50;99.90;;;;;;5023637;28;20768;-61
2023/01/11 06:08:53;;;;;;;5.55;1.63;;;5.50;99.90;;;;;;5011144;28;20030;-66
2023/01/11 06:11:18;;;;;;;6.60;1.30;;;5.50;99.90;;;;;;5019044;28;20033;-66
2023/01/11 06:13:44;;;;;;;4.30;0.98;;;5.40;99.90;;;;;;5017019;28;20037;-66
2023/01/11 06:16:18;;;;;;;4.22;1.35;;;5.40;99.90;;;;;;5015758;28;20410;-62
2023/01/11 06:18:46;;;;;;;5.88;1.13;;;5.30;99.90;;;;;;5010543;28;20045;-63
2023/01/11 06:21:14;;;;;;;7.55;1.35;;;5.20;99.90;;;;;;5019268;28;20495;-65
2023/01/11 06:23:42;;;;;;;8.30;0.90;;;5.20;99.90;;;;;;5017541;28;20021;-65
2023/01/11 06:26:13;;;;;;;3.13;1.15;;;5.20;99.90;;;;;;5012454;28;20422;-63
2023/01/11 06:28:40;;;;;;;4.68;1.40;;;5.20;99.90;;;;;;5023720;28;20025;-63
2023/01/11 06:31:06;;;;;;;8.18;0.93;;;5.40;99.90;;;;;;5012551;28;20120;-65
2023/01/11 06:33:32;;;;;;;9.30;1.20;;;5.30;99.90;;;;;;5015359;28;20079;-63
2023/01/11 06:36:01;;;;;;;6.47;1.50;;;5.40;99.90;;;;;;5020434;28;20194;-65
2023/01/11 06:38:26;;;;;;;8.15;1.35;;;5.50;99.90;;;;;;5009309;28;20129;-64
2023/01/11 06:40:55;;;;;;;3.78;1.33;;;5.40;99.90;;;;;;5020396;28;20421;-63
2023/01/11 06:43:22;;;;;;;2.58;0.95;;;6.40;99.90;;;;;;5009063;28;20054;-65
2023/01/11 06:45:48;;;;;;;6.38;1.48;;;5.40;99.90;;;;;;5016278;28;20447;-61
2023/01/11 06:48:16;;;;;;;3.72;0.82;;;5.40;99.90;;;;;;5007002;28;20053;-63
2023/01/11 06:50:42;;;;;;;3.72;0.93;;;5.40;99.90;;;;;;5022007;28;20029;-66
2023/01/11 06:53:07;;;;;;;3.85;1.13;;;5.30;99.90;;;;;;5012997;28;20775;-59
2023/01/11 06:55:33;;;;;;;8.35;1.77;;;5.40;99.90;;;;;;5017111;28;20022;-64
2023/01/11 06:57:58;;;;;;;12.80;1.40;;;5.50;99.90;;;;;;5019967;28;20459;-57
2023/01/11 07:00:24;;;;;;;5.30;1.80;;;5.40;99.90;;;;;;5023698;28;20037;-63
2023/01/11 07:02:50;;;;;;;9.20;1.17;;;5.30;99.90;;;;;;5011161;28;20041;-65
2023/01/11 07:05:16;;;;;;;5.72;1.30;;;5.40;99.90;;;;;;5022610;28;20367;-61
2023/01/11 07:07:43;;;;;;;4.65;1.00;;;5.30;99.90;;;;;;5015570;28;20053;-63
2023/01/11 07:10:12;;;;;;;6.20;0.93;;;5.20;99.90;;;;;;5022228;28;20025;-61
2023/01/11 07:12:38;;;;;;;12.90;1.23;;;5.30;99.90;;;;;;5012160;28;20091;-64
2023/01/11 07:15:06;;;;;;;6.13;1.00;;;5.30;99.90;;;;;;5022925;28;20029;-62
2023/01/11 07:17:32;;;;;;;4.82;0.93;;;5.40;99.90;;;;;;5020452;28;20029;-65
2023/01/11 07:19:57;;;;;;;3.45;1.02;;;5.50;99.90;;;;;;5014505;28;20040;-63
2023/01/11 07:22:23;;;;;;;3.97;0.80;;;5.50;99.90;;;;;;5022121;28;20124;-63
2023/01/11 07:24:50;;;;;;;7.60;1.63;;;5.50;99.90;;;;;;5014253;28;20415;-64
2023/01/11 07:27:18;;;;;;;4.90;1.42;;;5.40;99.90;;;;;;5013068;28;20029;-64
2023/01/11 07:29:44;;;;;;;11.05;2.13;;;5.80;99.90;;;;;;5014414;28;20045;-66
2023/01/11 07:32:10;;;;;;;4.85;0.90;;;5.40;99.90;;;;;;5018819;28;20053;-63
2023/01/11 07:34:36;;;;;;;5.22;1.23;;;5.30;99.90;;;;;;5007342;28;20029;-62
2023/01/11 07:37:02;;;;;;;2.85;1.02;;;5.30;99.90;;;;;;5005981;28;20029;-64
2023/01/11 07:39:27;;;;;;;3.95;1.10;;;5.30;99.90;;;;;;5027469;28;20025;-64
2023/01/11 07:44:39;;;;;;;7.43;1.52;;;5.40;99.90;;;;;;5044388;28;20186;-64
2023/01/11 07:47:05;;;;;;;10.65;0.98;;;5.50;99.90;;;;;;5044698;28;20033;-65
2023/01/11 07:49:31;;;;;;;7.97;1.30;;;5.60;99.90;;;;;;5050058;28;20491;-61
2023/01/11 07:51:56;;;;;;;7.28;1.33;;;5.60;99.90;;;;;;5049466;28;20480;-65
2023/01/11 07:54:23;;;;;;;24.48;3.72;;;5.70;99.90;;;;;;5049176;28;20094;-59
2023/01/11 07:56:50;;;;;;;3.42;0.93;;;5.70;99.90;;;;;;5050154;28;20482;-65
2023/01/11 07:59:16;;;;;;;4.82;1.50;;;5.80;99.90;;;;;;5050334;28;20028;-66
2023/01/11 08:01:41;;;;;;;5.47;0.98;;;5.90;99.90;;;;;;5078904;22;21161;-67
2023/01/11 08:04:10;;;;;;;3.45;1.30;;;6.30;99.90;;;;;;5072824;28;20028;-66
2023/01/11 08:06:37;;;;;;;8.50;1.10;;;5.90;99.90;;;;;;5090862;28;20023;-61
2023/01/11 08:09:03;;;;;;;3.22;1.00;;;6.00;99.90;;;;;;5090464;28;20020;-64
2023/01/11 08:16:56;;;;;;;6.72;1.35;;;6.10;99.90;;;;;;5091037;28;20531;-65
2023/01/11 08:19:22;;;;;;;6.35;1.65;;;6.20;99.90;;;;;;5091234;28;20055;-65
2023/01/11 08:21:49;;;;;;;4.20;0.93;;;6.10;99.90;;;;;;5091061;28;20036;-65
2023/01/11 08:24:15;;;;;;;1.98;0.95;;;6.20;99.90;;;;;;5091142;28;20020;-65
2023/01/11 08:26:41;;;;;;;5.40;1.10;;;6.20;99.90;;;;;;5091671;28;20058;-66
2023/01/11 08:29:07;;;;;;;4.97;1.25;;;6.30;99.90;;;;;;5089886;28;20035;-66
2023/01/11 08:31:32;;;;;;;6.40;1.10;;;6.30;99.90;;;;;;5091649;28;20028;-66
2023/01/11 08:33:58;;;;;;;5.15;1.27;;;6.40;99.90;;;;;;5072168;28;20020;-66
2023/01/11 08:36:26;;;;;;;4.97;0.73;;;6.40;99.90;;;;;;5090807;28;20101;-66
2023/01/11 08:38:55;;;;;;;10.40;1.15;;;6.50;99.90;;;;;;5073468;28;20501;-65
2023/01/11 08:41:21;;;;;;;3.92;1.08;;;6.50;99.90;;;;;;5091480;28;20024;-68
2023/01/11 08:43:48;;;;;;;3.25;1.00;;;6.50;99.90;;;;;;5091905;28;20035;-65
2023/01/11 08:46:15;;;;;;;4.32;0.90;;;6.50;99.90;;;;;;5097008;28;20044;-65
2023/01/11 08:48:41;;;;;;;3.00;1.00;;;6.60;99.90;;;;;;5096915;28;20062;-66
2023/01/11 08:51:07;;;;;;;3.28;1.38;;;6.60;99.90;;;;;;5080506;28;20040;-64
2023/01/11 08:53:33;;;;;;;3.33;1.33;;;6.60;99.90;;;;;;5065610;28;20025;-65
2023/01/11 08:55:59;;;;;;;3.80;1.00;;;6.70;99.90;;;;;;5058268;28;20124;-65
2023/01/11 08:58:24;;;;;;;4.60;1.17;;;6.70;99.90;;;;;;5074097;28;20024;-63
2023/01/11 09:00:50;;;;;;;2.30;1.50;;;6.80;99.90;;;;;;5077193;28;20032;-63
2023/01/11 09:03:17;;;;;;;11.93;2.10;;;6.80;99.90;;;;;;5093583;28;20085;-69
2023/01/11 09:05:44;;;;;;;2.15;0.90;;;6.80;99.90;;;;;;5095009;28;20020;-65
2023/01/11 09:08:10;;;;;;;2.95;1.05;;;6.80;99.90;;;;;;5079477;28;20032;-66
2023/01/11 09:10:36;;;;;;;3.50;1.15;;;6.90;99.90;;;;;;5094982;28;20024;-65
2023/01/11 09:13:02;;;;;;;2.90;1.02;;;6.90;99.90;;;;;;5093759;28;20024;-66
2023/01/11 09:15:28;;;;;;;2.92;1.08;;;6.90;99.90;;;;;;5086311;28;20027;-66
2023/01/11 09:17:54;;;;;;;3.92;1.20;;;6.90;99.90;;;;;;5073973;28;20024;-65
2023/01/11 09:20:21;;;;;;;2.85;1.05;;;6.90;99.90;;;;;;5073625;28;20185;-67
2023/01/11 09:22:48;;;;;;;4.82;1.08;;;7.00;99.90;;;;;;5073725;28;20044;-68
2023/01/11 09:25:14;;;;;;;3.42;1.63;;;7.00;99.90;;;;;;5073275;28;20021;-65
2023/01/11 09:27:48;;;;;;;9.20;1.13;;;7.00;99.90;;;;;;5073051;28;20025;-66
2023/01/11 09:30:18;;;;;;;5.20;1.05;;;7.10;99.90;;;;;;5086208;28;20032;-66
2023/01/11 09:32:45;;;;;;;3.83;1.02;;;7.10;99.90;;;;;;5093031;28;20024;-65
2023/01/11 09:35:11;;;;;;;4.97;1.45;;;7.10;99.90;;;;;;5074705;28;20028;-67
2023/01/11 09:37:40;;;;;;;5.03;1.02;;;7.10;99.90;;;;;;5093130;28;20038;-65
2023/01/11 09:40:40;;;;;;;2.88;0.90;;;7.10;99.90;;;;;;5092966;28;20043;-67
2023/01/11 09:43:10;;;;;;;4.03;0.90;;;7.10;99.90;;;;;;5092524;28;20063;-66
2023/01/11 09:45:45;;;;;;;1.90;1.13;;;7.00;99.90;;;;;;5075111;28;20020;-66
2023/01/11 09:48:27;;;;;;;1.85;1.00;;;7.00;99.90;;;;;;5072601;28;20085;-61
2023/01/11 09:50:54;;;;;;;4.95;1.52;;;7.00;99.90;;;;;;5072405;28;20506;-65
2023/01/11 09:53:35;;;;;;;4.72;1.52;;;7.00;99.90;;;;;;5072357;28;20029;-65
2023/01/11 09:56:04;;;;;;;3.65;1.10;;;7.00;99.90;;;;;;5072765;28;20518;-66
2023/01/11 09:58:57;;;;;;;3.38;1.10;;;7.00;99.90;;;;;;5080857;28;20028;-66
2023/01/11 10:01:37;;;;;;;8.05;1.15;;;7.10;99.90;;;;;;5092825;28;20036;-63
2023/01/11 10:04:36;;;;;;;2.30;1.27;;;7.10;99.90;;;;;;5092224;28;20023;-64
2023/01/11 10:07:11;;;;;;;2.33;1.08;;;7.10;99.90;;;;;;5092556;28;20074;-66
2023/01/11 10:09:51;;;;;;;5.68;1.20;;;7.10;99.90;;;;;;5092856;28;20048;-68
2023/01/11 10:12:35;;;;;;;4.35;1.35;;;7.10;99.90;;;;;;5092208;28;20066;-69
2023/01/11 10:15:24;;;;;;;3.73;1.40;;;7.10;99.90;;;;;;5090449;28;20401;-61
2023/01/11 10:17:53;;;;;;;4.30;1.55;;;7.10;99.90;;;;;;5092489;28;20508;-66
2023/01/11 10:20:34;;;;;;;5.63;2.17;;;7.10;99.90;;;;;;5092282;28;20165;-62
2023/01/11 10:23:26;;;;;;;3.42;1.30;;;7.20;99.90;;;;;;5092271;28;20127;-63
2023/01/11 10:25:56;;;;;;;4.30;1.23;;;7.20;99.90;;;;;;5092850;28;20051;-63
2023/01/11 10:28:26;;;;;;;10.40;5.40;;;7.30;99.90;;;;;;5092595;28;20335;-65
2023/01/11 10:33:44;;;;;;;3.83;1.60;;;7.40;99.90;;;;;;5092142;28;20032;-66
2023/01/11 10:42:18;;;;;;;5.55;1.38;;;7.30;99.90;;;;;;5059725;28;20266;-65
2023/01/11 10:44:59;;;;;;;2.92;1.30;;;7.40;99.90;;;;;;5092533;28;20063;-69
2023/01/11 10:47:36;;;;;;;2.42;1.20;;;7.40;99.90;;;;;;5088069;28;20458;-65
2023/01/11 10:50:05;;;;;;;5.18;1.60;;;7.50;99.90;;;;;;5071860;28;20028;-65
2023/01/11 10:53:02;;;;;;;3.38;2.50;;;7.50;99.90;;;;;;5071601;28;20024;-65
2023/01/11 10:55:28;;;;;;;5.70;1.60;;;7.50;99.90;;;;;;5055561;28;20043;-65
2023/01/11 10:58:23;;;;;;;5.18;1.23;;;7.40;99.90;;;;;;5071329;28;20016;-63
2023/01/11 11:01:11;;;;;;;5.18;2.05;;;7.40;99.90;;;;;;5071249;28;20487;-69
2023/01/11 11:03:50;;;;;;;7.47;1.40;;;7.40;99.90;;;;;;5071560;28;20085;-66
2023/01/11 11:06:42;;;;;;;8.02;1.65;;;7.40;99.90;;;;;;5050841;28;20032;-61
2023/01/11 11:09:22;;;;;;;14.18;1.75;;;7.40;99.90;;;;;;5046902;28;20099;-68
2023/01/11 11:11:59;;;;;;;3.83;2.67;;;7.40;99.90;;;;;;5052966;28;20032;-67
2023/01/11 11:14:34;;;;;;;5.03;2.45;;;7.50;99.90;;;;;;5051441;28;20049;-64
2023/01/11 11:17:20;;;;;;;4.68;1.35;;;7.40;99.90;;;;;;5051968;28;20029;-67
2023/01/11 11:19:45;;;;;;;7.75;1.85;;;7.50;99.90;;;;;;5051614;28;20069;-68
2023/01/11 11:22:11;;;;;;;8.05;1.63;;;7.40;99.90;;;;;;5068701;28;20044;-65
2023/01/11 11:24:44;;;;;;;4.35;1.20;;;7.50;99.90;;;;;;5071691;28;20044;-63
2023/01/11 11:27:29;;;;;;;3.33;1.48;;;7.50;99.90;;;;;;5072104;28;20032;-64
2023/01/11 11:29:56;;;;;;;3.65;1.30;;;7.50;99.90;;;;;;5072178;28;20020;-66
2023/01/11 11:32:35;;;;;;;2.33;1.60;;;7.50;99.90;;;;;;5072047;28;20046;-65
2023/01/11 11:35:00;;;;;;;3.63;1.75;;;7.50;99.90;;;;;;5071882;28;20461;-67
2023/01/11 11:37:32;;;;;;;3.75;2.08;;;7.50;99.90;;;;;;5072770;28;20147;-67
2023/01/11 11:39:58;;;;;;;2.03;1.23;;;7.50;99.90;;;;;;5071108;28;20024;-65
2023/01/11 11:42:24;;;;;;;3.05;1.58;;;7.40;99.90;;;;;;5072411;28;20017;-68
2023/01/11 11:45:08;;;;;;;3.80;1.45;;;7.50;99.90;;;;;;5071996;28;20105;-66
2023/01/11 11:47:34;;;;;;;8.57;2.88;;;7.50;99.90;;;;;;5071179;28;20394;-60
2023/01/11 11:50:32;;;;;;;6.10;2.13;;;7.50;99.90;;;;;;5070610;28;20025;-66
2023/01/11 11:53:03;;;;;;;2.20;1.40;;;7.50;99.90;;;;;;5026180;28;20070;-66
2023/01/11 11:55:32;;;;;;;3.78;1.67;;;7.50;99.90;;;;;;5090653;28;20036;-64
2023/01/11 11:58:04;;;;;;;2.40;1.60;;;7.50;99.90;;;;;;5090816;28;20032;-63
2023/01/11 12:00:42;;;;;;;2.80;1.65;;;7.60;99.90;;;;;;5090214;28;20099;-64
2023/01/11 12:03:19;;;;;;;3.90;2.25;;;7.60;99.90;;;;;;5090111;28;20035;-64
2023/01/11 12:06:00;;;;;;;3.03;1.52;;;7.60;99.90;;;;;;5091007;28;20024;-65
2023/01/11 12:08:27;;;;;;;3.63;1.55;;;7.60;99.90;;;;;;5072411;28;20020;-64
2023/01/11 12:10:59;;;;;;;3.97;2.25;;;7.60;99.90;;;;;;5089008;28;20036;-61
2023/01/11 12:13:37;;;;;;;4.75;1.73;;;7.60;99.90;;;;;;5090801;28;20031;-66
2023/01/11 12:16:21;;;;;;;2.20;1.60;;;7.70;99.90;;;;;;5090440;28;20092;-63
2023/01/11 12:18:47;;;;;;;2.88;1.60;;;7.70;99.90;;;;;;5094410;28;20056;-64
2023/01/11 12:21:22;;;;;;;3.20;1.10;;;7.80;99.90;;;;;;5094434;28;20132;-64
2023/01/11 12:24:07;;;;;;;4.82;1.98;;;7.80;99.90;;;;;;5094421;28;20016;-63
2023/01/11 12:27:14;;;;;;;8.23;2.00;;;7.80;99.90;;;;;;5092655;28;20458;-66
2023/01/11 12:29:53;;;;;;;2.10;1.50;;;7.90;99.90;;;;;;5045076;28;20040;-65
2023/01/11 12:32:44;;;;;;;2.45;1.85;;;7.90;99.90;;;;;;5094063;28;20114;-64
2023/01/11 12:35:27;;;;;;;3.03;1.60;;;8.00;99.90;;;;;;5095004;28;20417;-66
2023/01/11 12:38:01;;;;;;;2.88;1.50;;;8.00;99.90;;;;;;5095019;28;20054;-67
2023/01/11 12:40:39;;;;;;;2.38;1.42;;;7.90;99.90;;;;;;5095829;28;20024;-66
2023/01/11 12:43:34;;;;;;;2.92;1.70;;;7.90;99.90;;;;;;5095238;28;20058;-64
2023/01/11 12:46:29;;;;;;;2.20;1.30;;;7.90;99.90;;;;;;5054512;28;20029;-68
2023/01/11 12:49:18;;;;;;;3.95;1.35;;;7.90;99.90;;;;;;5053717;28;20108;-65
2023/01/11 12:51:56;;;;;;;3.22;1.50;;;7.90;99.90;;;;;;5053907;28;20025;-67
2023/01/11 12:54:43;;;;;;;1.70;1.23;;;7.80;99.90;;;;;;5055002;28;20108;-62
2023/01/11 12:57:20;;;;;;;3.22;1.50;;;7.80;99.90;;;;;;5079363;28;20106;-63
2023/01/11 12:59:48;;;;;;;1.67;1.38;;;7.80;99.90;;;;;;5094040;28;20085;-66
2023/01/11 13:02:38;;;;;;;2.13;1.25;;;7.80;99.90;;;;;;5093086;28;20143;-66
2023/01/11 13:05:25;;;;;;;2.60;1.60;;;7.80;99.90;;;;;;5094021;28;20398;-67
2023/01/11 13:08:24;;;;;;;2.92;1.50;;;7.90;99.90;;;;;;5094957;28;20024;-67
2023/01/11 13:10:55;;;;;;;3.10;1.30;;;7.80;99.90;;;;;;5084160;28;20154;-67
2023/01/11 13:13:35;;;;;;;2.95;1.30;;;7.80;99.90;;;;;;5084886;28;20461;-66
2023/01/11 13:16:04;;;;;;;3.25;1.50;;;7.80;99.90;;;;;;5093895;28;20173;-64
2023/01/11 13:18:57;;;;;;;8.20;1.67;;;7.80;99.90;;;;;;5093950;28;20039;-65
2023/01/11 13:21:43;;;;;;;2.47;1.65;;;7.80;99.90;;;;;;5093280;28;20039;-63
2023/01/11 13:24:16;;;;;;;3.22;1.70;;;7.80;99.90;;;;;;5090169;28;20092;-67
2023/01/11 13:26:45;;;;;;;3.90;1.80;;;7.80;99.90;;;;;;5072955;28;20103;-65
2023/01/11 13:29:31;;;;;;;4.03;2.30;;;7.80;99.90;;;;;;5072663;28;20024;-69
2023/01/11 13:32:01;;;;;;;4.25;2.92;;;7.80;99.90;;;;;;5072860;28;20082;-64
2023/01/11 13:34:31;;;;;;;2.70;1.48;;;7.70;99.90;;;;;;5083416;28;20028;-65
2023/01/11 13:37:05;;;;;;;1.63;1.30;;;7.80;99.90;;;;;;5093841;28;20035;-61
2023/01/11 13:39:33;;;;;;;3.90;1.50;;;7.80;99.90;;;;;;5093209;28;20024;-63
2023/01/11 13:42:18;;;;;;;3.38;1.60;;;7.80;99.90;;;;;;5092661;28;20138;-65
2023/01/11 13:44:50;;;;;;;2.80;1.50;;;7.80;99.90;;;;;;5093070;28;20016;-63
2023/01/11 13:47:28;;;;;;;2.03;1.40;;;7.80;99.90;;;;;;5092017;28;20173;-69
2023/01/11 13:50:14;;;;;;;2.78;1.50;;;7.80;99.90;;;;;;5072569;28;20021;-65
2023/01/11 13:52:59;;;;;;;2.35;1.35;;;7.70;99.90;;;;;;5071902;28;20028;-64